createdAt,value
2023-03-20T00:01:31.619Z,17.38
2023-03-20T00:03:58.996Z,13.18
2023-03-20T00:06:31.411Z,14.20
2023-03-20T00:08:58.766Z,9.80
2023-03-20T00:11:44.386Z,9.48
2023-03-20T00:14:14.754Z,13.25
2023-03-20T00:16:44.490Z,10.30
2023-03-20T00:19:17.764Z,12.20
2023-03-20T00:21:46.701Z,10.20
2023-03-20T00:24:15.552Z,11.20
2023-03-20T00:26:44.561Z,9.90
2023-03-20T00:29:32.938Z,11.32
2023-03-20T00:32:00.666Z,14.52
2023-03-20T00:34:29.729Z,17.08
2023-03-20T00:36:58.391Z,15.48
2023-03-20T00:39:26.380Z,12.88
2023-03-20T00:42:03.664Z,11.77
2023-03-20T00:44:36.728Z,17.05
2023-03-20T00:47:18.257Z,7.90
2023-03-20T00:49:48.235Z,12.25
2023-03-20T00:52:18.047Z,21.60
2023-03-20T00:54:45.555Z,14.85
2023-03-20T00:57:15.736Z,15.23
2023-03-20T00:59:55.108Z,13.48
2023-03-20T01:02:27.001Z,19.67
2023-03-20T01:04:55.025Z,13.25
2023-03-20T01:07:22.440Z,17.40
2023-03-20T01:09:49.767Z,20.58
2023-03-20T01:12:18.737Z,16.52
2023-03-20T01:14:53.912Z,18.45
2023-03-20T01:17:23.120Z,14.55
2023-03-20T01:19:52.048Z,13.07
2023-03-20T01:22:19.461Z,19.17
2023-03-20T01:24:47.526Z,13.77
2023-03-20T01:27:20.304Z,15.82
2023-03-20T01:29:48.177Z,18.48
2023-03-20T01:32:19.637Z,24.63
2023-03-20T01:34:47.841Z,16.33
2023-03-20T01:37:24.213Z,20.75
2023-03-20T01:39:51.554Z,16.27
2023-03-20T01:42:19.630Z,13.52
2023-03-20T01:44:47.147Z,16.77
2023-03-20T01:47:21.756Z,14.93
2023-03-20T01:50:13.844Z,13.00
2023-03-20T01:52:41.187Z,11.55
2023-03-20T01:55:09.004Z,15.45
2023-03-20T01:57:37.670Z,15.68
2023-03-20T02:00:10.366Z,14.98
2023-03-20T02:02:39.782Z,10.40
2023-03-20T02:05:10.439Z,17.70
2023-03-20T02:07:39.324Z,15.95
2023-03-20T02:10:11.674Z,17.40
2023-03-20T02:12:41.459Z,14.68
2023-03-20T02:15:09.176Z,15.98
2023-03-20T02:17:37.881Z,14.55
2023-03-20T02:20:14.244Z,16.58
2023-03-20T02:23:14.836Z,13.50
2023-03-20T02:25:57.136Z,19.42
2023-03-20T02:28:42.743Z,26.23
2023-03-20T02:31:34.474Z,20.17
2023-03-20T02:34:14.740Z,12.40
2023-03-20T02:37:02.234Z,15.50
2023-03-20T02:39:44.848Z,19.92
2023-03-20T02:42:20.941Z,13.68
2023-03-20T02:44:57.067Z,20.10
2023-03-20T02:47:30.694Z,17.52
2023-03-20T02:50:16.404Z,13.05
2023-03-20T02:52:58.997Z,18.60
2023-03-20T02:55:34.188Z,19.23
2023-03-20T02:58:08.862Z,17.60
2023-03-20T03:00:50.857Z,25.00
2023-03-20T03:03:29.623Z,11.38
2023-03-20T03:06:04.147Z,29.60
2023-03-20T03:08:38.093Z,11.77
2023-03-20T03:11:08.765Z,20.35
2023-03-20T03:13:52.877Z,14.85
2023-03-20T03:16:28.012Z,18.65
2023-03-20T03:19:10.750Z,20.23
2023-03-20T03:21:40.345Z,20.88
2023-03-20T03:24:40.464Z,33.42
2023-03-20T03:27:17.764Z,19.88
2023-03-20T03:29:49.917Z,17.50
2023-03-20T03:32:34.514Z,18.73
2023-03-20T03:35:05.582Z,13.68
2023-03-20T03:38:02.252Z,16.92
2023-03-20T03:40:56.829Z,17.10
2023-03-20T03:43:39.365Z,15.00
2023-03-20T03:46:34.722Z,17.27
2023-03-20T03:49:07.263Z,15.77
2023-03-20T03:51:39.933Z,20.90
2023-03-20T03:54:13.368Z,13.18
2023-03-20T03:56:43.136Z,14.43
2023-03-20T03:59:26.362Z,22.77
2023-03-20T04:01:55.600Z,20.52
2023-03-20T04:04:25.456Z,15.88
2023-03-20T04:06:53.345Z,20.27
2023-03-20T04:09:20.840Z,15.57
2023-03-20T04:11:51.428Z,19.23
2023-03-20T04:14:21.956Z,20.60
2023-03-20T04:16:49.337Z,15.15
2023-03-20T04:19:16.940Z,14.05
2023-03-20T04:21:45.876Z,18.23
2023-03-20T04:24:13.363Z,16.30
2023-03-20T04:26:41.014Z,19.58
2023-03-20T04:29:08.806Z,22.08
2023-03-20T04:31:36.483Z,18.95
2023-03-20T04:34:03.894Z,21.35
2023-03-20T04:36:31.250Z,19.17
2023-03-20T04:39:01.115Z,14.98
2023-03-20T04:41:30.174Z,19.88
2023-03-20T04:43:57.477Z,21.83
2023-03-20T04:46:24.897Z,19.50
2023-03-20T04:48:52.836Z,25.33
2023-03-20T04:51:22.690Z,15.18
2023-03-20T04:53:50.373Z,13.90
2023-03-20T04:56:17.969Z,9.73
2023-03-20T04:58:45.560Z,15.20
2023-03-20T05:01:13.030Z,20.92
2023-03-20T05:03:40.475Z,13.52
2023-03-20T05:06:08.528Z,17.55
2023-03-20T05:08:37.792Z,19.85
2023-03-20T05:11:05.590Z,22.05
2023-03-20T05:13:32.884Z,16.48
2023-03-20T05:16:01.750Z,29.75
2023-03-20T05:18:29.056Z,12.82
2023-03-20T05:20:57.393Z,20.00
2023-03-20T05:23:24.747Z,21.38
2023-03-20T05:25:52.350Z,16.42
2023-03-20T05:28:19.750Z,13.02
2023-03-20T05:30:47.863Z,19.35
2023-03-20T05:33:17.761Z,17.50
2023-03-20T05:35:45.123Z,22.65
2023-03-20T05:38:12.573Z,16.75
2023-03-20T05:40:41.879Z,14.98
2023-03-20T05:43:10.222Z,16.75
2023-03-20T05:45:37.708Z,21.73
2023-03-20T05:48:05.437Z,18.75
2023-03-20T05:50:35.292Z,15.88
2023-03-20T05:53:02.714Z,22.33
2023-03-20T05:55:33.285Z,17.33
2023-03-20T05:58:00.743Z,24.98
2023-03-20T06:00:28.106Z,22.35
2023-03-20T06:02:56.355Z,18.42
2023-03-20T06:05:23.702Z,17.15
2023-03-20T06:07:51.180Z,21.70
2023-03-20T06:10:20.751Z,16.40
2023-03-20T06:12:48.183Z,19.52
2023-03-20T06:15:15.839Z,30.40
2023-03-20T06:17:43.129Z,32.22
2023-03-20T06:20:11.709Z,24.65
2023-03-20T06:22:39.194Z,28.05
2023-03-20T06:25:07.404Z,18.73
2023-03-20T06:27:34.913Z,19.48
2023-03-20T06:30:02.459Z,28.73
2023-03-20T06:32:29.742Z,24.48
2023-03-20T06:34:58.600Z,21.30
2023-03-20T06:37:26.176Z,24.35
2023-03-20T06:39:53.584Z,20.40
2023-03-20T06:42:21.301Z,19.10
2023-03-20T06:44:48.844Z,28.05
2023-03-20T06:47:16.385Z,17.10
2023-03-20T06:49:45.907Z,23.77
2023-03-20T06:52:19.172Z,24.95
2023-03-20T06:54:47.731Z,24.08
2023-03-20T06:57:17.743Z,19.42
2023-03-20T06:59:46.147Z,26.90
2023-03-20T07:02:15.022Z,22.95
2023-03-20T07:04:43.311Z,20.65
2023-03-20T07:07:10.802Z,22.00
2023-03-20T07:09:38.525Z,28.20
2023-03-20T07:12:05.959Z,18.00
2023-03-20T07:14:33.571Z,20.88
2023-03-20T07:17:00.998Z,26.13
2023-03-20T07:19:28.440Z,24.35
2023-03-20T07:22:01.909Z,23.02
2023-03-20T07:24:29.525Z,24.75
2023-03-20T07:26:59.374Z,21.77
2023-03-20T07:29:26.901Z,28.48
2023-03-20T07:31:54.336Z,23.92
2023-03-20T07:34:22.310Z,16.08
2023-03-20T07:36:49.556Z,29.50
2023-03-20T07:39:17.922Z,28.30
2023-03-20T07:41:45.649Z,17.98
2023-03-20T07:44:14.469Z,25.58
2023-03-20T07:46:42.031Z,18.98
2023-03-20T07:49:09.327Z,21.00
2023-03-20T07:51:36.770Z,20.42
2023-03-20T07:54:06.121Z,25.45
2023-03-20T07:56:35.383Z,19.98
2023-03-20T07:59:02.738Z,17.85
2023-03-20T08:01:30.250Z,17.70
2023-03-20T08:03:59.078Z,15.00
2023-03-20T08:06:26.565Z,19.17
2023-03-20T08:08:54.129Z,24.90
2023-03-20T08:11:21.488Z,14.40
2023-03-20T08:13:48.787Z,16.25
2023-03-20T08:16:16.316Z,17.13
2023-03-20T08:18:43.636Z,16.25
2023-03-20T08:21:11.086Z,18.38
2023-03-20T08:23:38.375Z,22.63
2023-03-20T08:26:05.716Z,16.20
2023-03-20T08:28:46.597Z,15.07
2023-03-20T08:31:15.325Z,17.77
2023-03-20T08:33:43.068Z,14.82
2023-03-20T08:36:10.908Z,17.88
2023-03-20T08:38:38.300Z,14.35
2023-03-20T08:41:07.872Z,15.43
2023-03-20T08:43:36.444Z,15.52
2023-03-20T08:46:04.589Z,14.88
2023-03-20T08:48:32.476Z,21.17
2023-03-20T08:50:59.972Z,11.57
2023-03-20T08:53:27.671Z,11.40
2023-03-20T08:55:56.613Z,17.48
2023-03-20T08:58:24.120Z,17.58
2023-03-20T09:00:51.555Z,10.73
2023-03-20T09:03:21.302Z,15.00
2023-03-20T09:05:51.071Z,11.45
2023-03-20T09:08:19.144Z,10.55
2023-03-20T09:10:51.438Z,17.42
2023-03-20T09:13:27.547Z,17.73
2023-03-20T09:15:56.493Z,9.35
2023-03-20T09:18:25.235Z,9.07
2023-03-20T09:20:52.699Z,9.98
2023-03-20T09:23:20.274Z,9.48
2023-03-20T09:25:48.020Z,8.23
2023-03-20T09:28:15.508Z,13.57
2023-03-20T09:30:43.874Z,9.80
2023-03-20T09:33:11.714Z,12.38
2023-03-20T09:35:39.543Z,6.22
2023-03-20T09:38:08.288Z,10.20
2023-03-20T09:40:48.556Z,3.92
2023-03-20T09:43:53.290Z,5.72
2023-03-20T09:46:51.386Z,8.43
2023-03-20T09:49:30.649Z,5.40
2023-03-20T09:52:00.662Z,7.07
2023-03-20T09:54:30.229Z,6.85
2023-03-20T09:56:58.174Z,3.55
2023-03-20T09:59:27.246Z,3.65
2023-03-20T10:02:12.981Z,4.03
2023-03-20T10:04:42.159Z,3.47
2023-03-20T10:07:14.004Z,8.23
2023-03-20T10:09:42.842Z,6.03
2023-03-20T10:12:28.228Z,3.08
2023-03-20T10:15:03.262Z,8.75
2023-03-20T10:18:08.201Z,6.95
2023-03-20T10:20:41.849Z,2.70
2023-03-20T10:23:21.344Z,6.50
2023-03-20T10:26:22.891Z,6.93
2023-03-20T10:29:00.107Z,5.13
2023-03-20T10:31:56.297Z,8.45
2023-03-20T10:34:48.485Z,3.70
2023-03-20T10:37:21.985Z,3.85
2023-03-20T10:40:01.429Z,4.18
2023-03-20T10:42:33.650Z,8.23
2023-03-20T10:45:28.005Z,3.85
2023-03-20T10:47:58.130Z,3.08
2023-03-20T10:50:47.339Z,4.90
2023-03-20T10:53:25.382Z,4.00
2023-03-20T10:55:58.893Z,5.70
2023-03-20T10:58:31.100Z,4.18
2023-03-20T11:00:59.323Z,4.28
2023-03-20T11:03:29.197Z,2.65
2023-03-20T11:06:10.366Z,7.85
2023-03-20T11:08:43.148Z,7.78
2023-03-20T11:11:10.811Z,2.65
2023-03-20T11:13:45.465Z,3.28
2023-03-20T11:16:31.614Z,2.70
2023-03-20T11:19:07.483Z,5.05
2023-03-20T11:21:44.567Z,6.25
2023-03-20T11:24:33.453Z,5.82
2023-03-20T11:27:10.439Z,4.75
2023-03-20T11:29:40.905Z,5.68
2023-03-20T11:32:28.986Z,3.45
2023-03-20T11:35:09.869Z,6.50
2023-03-20T11:37:46.908Z,5.07
2023-03-20T11:40:30.130Z,2.63
2023-03-20T11:43:03.983Z,5.22
2023-03-20T11:45:36.946Z,3.17
2023-03-20T11:48:05.047Z,4.65
2023-03-20T11:50:38.518Z,4.13
2023-03-20T11:53:29.231Z,2.22
2023-03-20T11:56:05.854Z,2.20
2023-03-20T11:58:37.446Z,3.40
2023-03-20T12:01:08.385Z,5.60
2023-03-20T12:03:46.781Z,3.72
2023-03-20T12:06:17.824Z,6.88
2023-03-20T12:09:10.890Z,7.40
2023-03-20T12:11:47.415Z,3.13
2023-03-20T12:14:26.030Z,6.22
2023-03-20T12:17:13.283Z,4.20
2023-03-20T12:19:43.173Z,6.03
2023-03-20T12:22:24.365Z,7.75
2023-03-20T12:25:20.900Z,6.72
2023-03-20T12:28:06.007Z,8.77
2023-03-20T12:30:58.273Z,3.63
2023-03-20T12:33:48.023Z,3.30
2023-03-20T12:36:24.188Z,8.80
2023-03-20T12:38:51.803Z,4.05
2023-03-20T12:41:48.389Z,5.30
2023-03-20T12:44:38.852Z,4.60
2023-03-20T12:47:27.200Z,5.32
2023-03-20T12:50:19.398Z,8.63
2023-03-20T12:53:05.038Z,6.18
2023-03-20T12:55:56.575Z,7.40
2023-03-20T12:58:35.954Z,7.80
2023-03-20T13:01:32.829Z,7.22
2023-03-20T13:04:18.956Z,4.90
2023-03-20T13:06:54.301Z,6.37
2023-03-20T13:09:26.052Z,10.93
2023-03-20T13:12:15.454Z,9.15
2023-03-20T13:14:55.403Z,8.85
2023-03-20T13:17:42.871Z,7.68
2023-03-20T13:20:33.258Z,11.90
2023-03-20T13:23:10.005Z,10.70
2023-03-20T13:26:17.448Z,10.60
2023-03-20T13:29:13.837Z,7.75
2023-03-20T13:32:07.448Z,9.07
2023-03-20T13:35:02.115Z,11.48
2023-03-20T13:37:39.180Z,9.57
2023-03-20T13:40:20.972Z,10.68
2023-03-20T13:43:30.738Z,14.85
2023-03-20T13:46:10.502Z,9.05
2023-03-20T13:48:42.063Z,11.05
2023-03-20T13:51:39.364Z,10.38
2023-03-20T13:54:28.256Z,16.67
2023-03-20T13:57:18.028Z,9.85
2023-03-20T14:00:09.544Z,11.20
2023-03-20T14:03:17.334Z,5.95
2023-03-20T14:05:45.653Z,11.38
2023-03-20T14:08:38.475Z,11.38
2023-03-20T14:11:21.011Z,7.68
2023-03-20T14:13:50.518Z,4.38
2023-03-20T14:16:22.281Z,6.65
2023-03-20T14:19:08.665Z,8.70
2023-03-20T14:21:36.999Z,4.40
2023-03-20T14:24:07.050Z,8.82
2023-03-20T14:26:44.941Z,9.00
2023-03-20T14:29:14.222Z,3.20
2023-03-20T14:31:45.364Z,3.45
2023-03-20T14:34:12.656Z,3.63
2023-03-20T14:36:59.879Z,3.35
2023-03-20T14:39:29.879Z,3.30
2023-03-20T14:42:26.937Z,7.10
2023-03-20T14:45:12.965Z,3.42
2023-03-20T14:47:54.618Z,2.23
2023-03-20T14:50:43.922Z,3.80
2023-03-20T14:53:22.152Z,1.48
2023-03-20T14:55:53.230Z,4.32
2023-03-20T14:58:51.592Z,3.15
2023-03-20T15:01:25.554Z,2.75
2023-03-20T15:04:05.944Z,5.63
2023-03-20T15:06:34.834Z,2.80
2023-03-20T15:09:09.279Z,3.28
2023-03-20T15:11:38.611Z,2.38
2023-03-20T15:14:08.527Z,2.78
2023-03-20T15:16:38.735Z,1.55
2023-03-20T15:19:18.003Z,3.28
2023-03-20T15:21:48.072Z,1.35
2023-03-20T15:24:29.387Z,2.95
2023-03-20T15:27:00.620Z,3.92
2023-03-20T15:29:31.645Z,5.35
2023-03-20T15:32:16.846Z,3.63
2023-03-20T15:34:47.441Z,1.92
2023-03-20T15:37:23.056Z,1.60
2023-03-20T15:39:55.486Z,1.90
2023-03-20T15:42:25.198Z,1.52
2023-03-20T15:44:54.955Z,2.97
2023-03-20T15:47:24.890Z,1.75
2023-03-20T15:49:55.741Z,2.00
2023-03-20T15:52:53.149Z,3.10
2023-03-20T15:55:23.174Z,2.50
2023-03-20T15:57:54.046Z,2.80
2023-03-20T16:00:39.842Z,2.47
2023-03-20T16:03:11.458Z,5.80
2023-03-20T16:05:42.635Z,3.03
2023-03-20T16:08:28.019Z,2.80
2023-03-20T16:10:58.207Z,2.35
2023-03-20T16:13:36.204Z,4.57
2023-03-20T16:16:08.827Z,2.75
2023-03-20T16:18:38.718Z,2.47
2023-03-20T16:21:15.971Z,2.55
2023-03-20T16:23:47.766Z,2.20
2023-03-20T16:26:18.631Z,2.88
2023-03-20T16:28:47.911Z,4.13
2023-03-20T16:31:15.339Z,1.83
2023-03-20T16:33:44.131Z,2.28
2023-03-20T16:36:30.550Z,2.60
2023-03-20T16:39:08.300Z,2.38
2023-03-20T16:41:40.621Z,2.88
2023-03-20T16:44:19.885Z,3.65
2023-03-20T16:47:02.211Z,1.70
2023-03-20T16:49:49.387Z,2.03
2023-03-20T16:52:27.196Z,1.90
2023-03-20T16:54:58.162Z,2.38
2023-03-20T16:57:27.374Z,3.47
2023-03-20T16:59:59.691Z,2.55
2023-03-20T17:02:37.494Z,3.10
2023-03-20T17:09:13.317Z,3.40
2023-03-20T17:11:46.868Z,2.72
2023-03-20T17:14:14.287Z,2.25
2023-03-20T17:16:41.905Z,2.63
2023-03-20T17:19:16.645Z,3.30
2023-03-20T17:21:46.078Z,2.65
2023-03-20T17:24:15.554Z,2.95
2023-03-20T17:26:47.160Z,2.45
2023-03-20T17:29:14.692Z,5.85
2023-03-20T17:31:45.198Z,4.50
2023-03-20T17:34:15.565Z,2.80
2023-03-20T17:36:43.353Z,3.38
2023-03-20T17:39:18.437Z,6.50
2023-03-20T17:41:46.977Z,9.48
2023-03-20T17:44:14.313Z,3.50
2023-03-20T17:46:57.388Z,3.17
2023-03-20T17:49:27.551Z,3.58
2023-03-20T17:51:56.237Z,4.40
2023-03-20T17:54:23.901Z,6.57
2023-03-20T17:56:51.502Z,2.53
2023-03-20T17:59:18.830Z,2.10
2023-03-20T18:01:46.300Z,3.03
2023-03-20T18:04:13.935Z,3.78
2023-03-20T18:06:41.376Z,4.70
2023-03-20T18:09:13.454Z,1.65
2023-03-20T18:11:41.235Z,2.65
2023-03-20T18:14:12.362Z,1.70
2023-03-20T18:16:41.176Z,3.10
2023-03-20T18:19:21.580Z,2.10
2023-03-20T18:21:48.877Z,3.08
2023-03-20T18:24:16.562Z,3.13
2023-03-20T18:26:45.935Z,2.58
2023-03-20T18:29:16.398Z,2.00
2023-03-20T18:31:45.039Z,2.40
2023-03-20T18:34:12.440Z,1.92
2023-03-20T18:36:40.168Z,1.75
2023-03-20T18:39:07.871Z,2.33
2023-03-20T18:41:35.365Z,3.22
2023-03-20T18:44:02.704Z,2.67
2023-03-20T18:46:30.073Z,3.80
2023-03-20T18:48:58.137Z,3.50
2023-03-20T18:51:27.168Z,1.80
2023-03-20T18:53:55.995Z,2.00
2023-03-20T18:56:27.028Z,1.98
2023-03-20T18:58:54.768Z,3.33
2023-03-20T19:01:25.103Z,4.60
2023-03-20T19:03:54.243Z,4.03
2023-03-20T19:06:23.773Z,3.08
2023-03-20T19:08:53.544Z,3.92
2023-03-20T19:11:21.810Z,5.22
2023-03-20T19:13:52.339Z,5.07
2023-03-20T19:16:26.738Z,6.07
2023-03-20T19:18:56.075Z,6.13
2023-03-20T19:21:27.536Z,8.80
2023-03-20T19:23:57.119Z,13.20
2023-03-20T19:26:27.076Z,8.55
2023-03-20T19:28:56.302Z,11.93
2023-03-20T19:31:25.285Z,15.25
2023-03-20T19:33:54.728Z,20.40
2023-03-20T19:36:49.181Z,17.13
2023-03-20T19:39:16.614Z,15.82
2023-03-20T19:41:44.545Z,18.55
2023-03-20T19:44:11.831Z,14.18
2023-03-20T19:46:41.491Z,16.15
2023-03-20T19:49:19.056Z,19.00
2023-03-20T19:51:47.338Z,20.05
2023-03-20T19:54:14.665Z,17.80
2023-03-20T19:56:43.110Z,16.10
2023-03-20T19:59:10.490Z,12.45
2023-03-20T20:01:37.959Z,11.18
2023-03-20T20:04:05.596Z,17.33
2023-03-20T20:06:33.379Z,14.65
2023-03-20T20:09:01.723Z,12.38
2023-03-20T20:11:29.454Z,15.93
2023-03-20T20:14:06.652Z,18.13
2023-03-20T20:16:37.188Z,18.85
2023-03-20T20:19:05.110Z,17.77
2023-03-20T20:24:20.306Z,16.48
2023-03-20T20:26:59.675Z,11.95
2023-03-20T20:29:31.890Z,18.52
2023-03-20T20:32:01.829Z,14.25
2023-03-20T20:40:06.901Z,14.10
2023-03-20T20:42:35.240Z,17.35
2023-03-20T20:45:02.692Z,15.90
2023-03-20T20:47:30.042Z,11.45
2023-03-20T20:49:57.904Z,19.30
2023-03-20T20:52:25.334Z,14.90
2023-03-20T20:54:52.713Z,21.48
2023-03-20T20:57:20.391Z,14.05
2023-03-20T20:59:47.732Z,22.15
2023-03-20T21:02:17.480Z,14.52
2023-03-20T21:04:45.171Z,13.80
2023-03-20T21:07:13.732Z,14.50
2023-03-20T21:09:41.524Z,12.35
2023-03-20T21:12:10.805Z,15.13
2023-03-20T21:14:42.915Z,16.63
2023-03-20T21:17:10.551Z,19.70
2023-03-20T21:19:42.769Z,18.95
2023-03-20T21:22:13.146Z,19.02
2023-03-20T21:24:40.482Z,16.02
2023-03-20T21:27:11.682Z,13.55
2023-03-20T21:29:40.103Z,15.48
2023-03-20T21:32:09.590Z,11.73
2023-03-20T21:34:38.191Z,14.25
2023-03-20T21:38:04.043Z,15.73
2023-03-20T21:39:53.787Z,12.70
2023-03-20T21:42:21.696Z,9.20
2023-03-20T21:46:04.594Z,10.85
2023-03-20T21:50:50.249Z,14.52
2023-03-20T21:53:46.805Z,14.77
2023-03-20T21:56:45.754Z,9.77
2023-03-20T21:59:36.781Z,11.85
2023-03-20T22:02:09.587Z,9.18
2023-03-20T22:07:42.739Z,11.75
2023-03-20T22:16:18.892Z,8.60
2023-03-20T22:21:55.891Z,13.23
2023-03-20T22:24:51.920Z,18.42
2023-03-20T22:30:22.244Z,15.90
2023-03-20T22:33:09.795Z,9.40
2023-03-20T22:38:59.194Z,19.42
2023-03-20T22:41:49.420Z,16.35
2023-03-20T22:44:35.262Z,14.75
2023-03-20T22:46:44.746Z,10.90
2023-03-20T22:49:13.195Z,13.27
2023-03-20T22:51:55.579Z,15.15
2023-03-20T22:54:25.720Z,12.55
2023-03-20T22:56:54.308Z,14.60
2023-03-20T22:59:22.930Z,20.58
2023-03-20T23:01:50.780Z,12.23
2023-03-20T23:04:18.203Z,11.77
2023-03-20T23:06:45.645Z,14.00
2023-03-20T23:09:15.839Z,12.50
2023-03-20T23:11:44.006Z,18.90
2023-03-20T23:14:21.588Z,13.07
2023-03-20T23:16:50.762Z,13.75
2023-03-20T23:19:19.287Z,17.17
2023-03-20T23:21:46.669Z,21.05
2023-03-20T23:24:14.135Z,13.43
2023-03-20T23:26:41.713Z,16.05
2023-03-20T23:29:09.449Z,15.98
2023-03-20T23:31:36.807Z,12.85
2023-03-20T23:34:04.192Z,11.43
2023-03-20T23:36:38.752Z,12.27
2023-03-20T23:39:09.177Z,10.68
2023-03-20T23:44:26.958Z,11.75
2023-03-20T23:46:55.679Z,17.20
2023-03-20T23:49:23.393Z,14.32
2023-03-20T23:51:51.203Z,15.35
2023-03-20T23:54:18.700Z,13.13
2023-03-20T23:56:50.656Z,13.45
2023-03-20T23:59:22.124Z,15.65
